Time;durP1;ratioP1;P1;durP2;ratioP2;P2;SDS_P1;SDS_P2;PMS_P1;PMS_P2;Temp;Humidity;BMP_temperature;BMP_pressure;BME280_temperature;BME280_humidity;BME280_pressure;Samples;Min_cycle;Max_cycle;Signal;HPM_P1;HPM_P2
2021/05/25 00:01:45;;;;;;;3.00;0.80;;;;;;;16.50;61.50;100190.72;3518577;40;20055;-56
2021/05/25 00:04:12;;;;;;;2.75;1.15;;;;;;;16.56;60.87;100194.97;3531696;40;20449;-57
2021/05/25 00:06:39;;;;;;;7.20;0.95;;;;;;;16.50;60.94;100190.72;3531424;40;20520;-57
2021/05/25 00:09:06;;;;;;;1.13;0.90;;;;;;;16.55;61.08;100198.44;3531615;40;20090;-56
2021/05/25 00:11:33;;;;;;;1.92;0.90;;;;;;;16.44;60.86;100195.03;3531505;40;20090;-59
2021/05/25 00:14:02;;;;;;;2.63;1.13;;;;;;;16.54;60.93;100197.56;3531232;40;20067;-60
2021/05/25 00:16:30;;;;;;;1.52;0.90;;;;;;;16.54;60.79;100209.63;3531358;40;20070;-60
2021/05/25 00:18:57;;;;;;;1.65;0.93;;;;;;;16.54;59.69;100201.88;3531453;40;20160;-58
2021/05/25 00:21:24;;;;;;;1.92;0.93;;;;;;;16.46;60.51;100217.44;3531388;40;20057;-59
2021/05/25 00:23:52;;;;;;;1.88;0.88;;;;;;;16.50;59.47;100218.25;3531588;40;20405;-59
2021/05/25 00:26:19;;;;;;;2.10;1.00;;;;;;;16.44;59.54;100226.91;3531850;40;20449;-57
2021/05/25 00:28:46;;;;;;;3.67;1.00;;;;;;;16.40;59.87;100230.38;3527738;40;20094;-58
2021/05/25 00:31:13;;;;;;;4.57;1.10;;;;;;;16.19;59.84;100238.25;3531524;40;20062;-57
2021/05/25 00:33:40;;;;;;;7.43;1.08;;;;;;;16.09;58.62;100247.78;3531667;40;20077;-56
2021/05/25 00:36:10;;;;;;;2.83;1.05;;;;;;;16.02;58.55;100243.47;3531272;40;20090;-59
2021/05/25 00:38:38;;;;;;;6.53;0.68;;;;;;;15.89;60.70;100254.72;3531503;40;20066;-56
2021/05/25 00:41:05;;;;;;;0.75;0.70;;;;;;;15.57;64.23;100247.00;3532630;40;20091;-56
2021/05/25 00:43:32;;;;;;;2.47;0.70;;;;;;;15.48;64.12;100253.94;3532412;40;20059;-59
2021/05/25 00:46:00;;;;;;;1.45;0.52;;;;;;;15.34;65.01;100260.81;3532602;40;20066;-58
2021/05/25 00:48:44;;;;;;;2.30;0.98;;;;;;;15.14;67.28;100263.41;3532629;40;20455;-59
2021/05/25 00:51:20;;;;;;;2.92;0.70;;;;;;;15.29;63.76;100265.97;3532484;40;20386;-59
2021/05/25 00:53:47;;;;;;;4.03;0.80;;;;;;;15.19;66.52;100266.84;3532902;40;20054;-57
2021/05/25 00:56:15;;;;;;;3.53;0.80;;;;;;;14.76;71.17;100268.53;3532740;40;20094;-59
2021/05/25 00:58:42;;;;;;;3.80;1.27;;;;;;;14.56;71.62;100271.06;3532596;40;20055;-58
2021/05/25 01:01:09;;;;;;;4.68;0.95;;;;;;;14.84;68.23;100273.69;3532613;40;20083;-58
2021/05/25 01:03:37;;;;;;;5.38;0.98;;;;;;;14.83;69.51;100274.53;3532774;40;20140;-58
2021/05/25 01:06:04;;;;;;;2.60;0.70;;;;;;;14.58;70.67;100278.78;3532802;40;20795;-56
2021/05/25 01:08:32;;;;;;;2.15;0.90;;;;;;;14.55;72.90;100273.63;3532604;40;20063;-58
2021/05/25 01:11:05;;;;;;;2.45;1.00;;;;;;;14.44;75.56;100277.00;3532350;40;20079;-57
2021/05/25 01:13:41;;;;;;;1.30;0.73;;;;;;;14.57;72.18;100272.78;3532434;40;20051;-60
2021/05/25 01:16:09;;;;;;;2.65;1.33;;;;;;;14.62;74.03;100273.66;3532556;40;20063;-55
2021/05/25 01:18:37;;;;;;;3.25;1.17;;;;;;;14.40;75.69;100271.84;3532584;40;20063;-58
2021/05/25 01:21:07;;;;;;;2.10;0.93;;;;;;;14.01;78.39;100265.69;3532585;40;20443;-60
2021/05/25 01:23:36;;;;;;;4.15;1.20;;;;;;;13.59;83.93;100264.59;3532619;40;20055;-59
2021/05/25 01:26:04;;;;;;;1.45;1.08;;;;;;;13.44;86.62;100261.88;3532179;40;20051;-60
2021/05/25 01:28:32;;;;;;;2.92;1.23;;;;;;;13.59;86.29;100264.59;3532627;40;20077;-58
2021/05/25 01:31:00;;;;;;;3.47;1.02;;;;;;;13.22;89.07;100251.47;3532547;40;20106;-57
2021/05/25 01:33:29;;;;;;;2.55;1.20;;;;;;;13.05;90.82;100249.56;3532647;40;20063;-55
2021/05/25 01:35:56;;;;;;;2.80;1.33;;;;;;;13.19;90.83;100250.53;3532539;40;20429;-54
2021/05/25 01:38:25;;;;;;;2.85;1.23;;;;;;;13.63;86.39;100252.56;3532528;40;20106;-59
2021/05/25 01:40:55;;;;;;;1.63;1.20;;;;;;;13.25;90.14;100245.47;3532489;40;20059;-55
2021/05/25 01:43:24;;;;;;;3.60;1.23;;;;;;;13.14;91.48;100247.94;3532487;40;20074;-58
2021/05/25 01:45:51;;;;;;;3.30;1.58;;;;;;;12.88;94.22;100232.28;3532835;40;20402;-57
2021/05/25 01:48:19;;;;;;;2.65;1.15;;;;;;;12.98;94.75;100233.22;3533160;40;20063;-59
2021/05/25 01:50:46;;;;;;;2.67;1.20;;;;;;;13.01;96.31;100230.69;3528243;40;20111;-57
2021/05/25 01:53:20;;;;;;;3.17;1.45;;;;;;;13.27;93.09;100230.06;3532099;40;20043;-59
2021/05/25 01:55:51;;;;;;;3.80;1.63;;;;;;;13.68;90.29;100236.34;3528792;40;20057;-55
2021/05/25 01:58:25;;;;;;;3.55;1.27;;;;;;;13.76;89.04;100238.94;3532491;40;20056;-56
2021/05/25 02:00:56;;;;;;;3.00;1.20;;;;;;;13.71;89.91;100231.19;3528720;40;20144;-57
2021/05/25 02:03:24;;;;;;;1.88;1.05;;;;;;;13.12;92.40;100226.47;3532109;40;20062;-57
2021/05/25 02:05:51;;;;;;;2.78;1.30;;;;;;;13.11;92.05;100222.19;3532144;40;20480;-56
2021/05/25 02:08:20;;;;;;;2.00;1.40;;;;;;;12.77;95.15;100228.75;3532588;40;20055;-56
2021/05/25 02:10:50;;;;;;;1.88;1.13;;;;;;;12.79;96.82;100219.34;3528673;40;20370;-56
2021/05/25 02:13:23;;;;;;;2.65;1.13;;;;;;;13.07;94.20;100209.28;3532289;40;20053;-59
2021/05/25 02:15:52;;;;;;;2.35;1.08;;;;;;;13.57;88.09;100201.09;3528496;40;20055;-56
2021/05/25 02:18:24;;;;;;;2.28;1.33;;;;;;;12.91;92.21;100201.47;3532338;40;20090;-55
2021/05/25 02:20:54;;;;;;;2.22;1.23;;;;;;;12.90;93.47;100192.03;3528456;40;20087;-58
2021/05/25 02:23:21;;;;;;;3.55;1.17;;;;;;;12.50;95.62;100180.56;3531976;40;20067;-57
2021/05/25 02:25:48;;;;;;;4.85;1.15;;;;;;;12.36;96.13;100182.13;3532310;40;20066;-56
2021/05/25 02:28:16;;;;;;;2.67;1.30;;;;;;;12.85;93.57;100183.44;3532193;40;20094;-58
2021/05/25 02:30:44;;;;;;;4.43;1.50;;;;;;;12.91;94.08;100185.19;3531804;40;20421;-59
2021/05/25 02:33:16;;;;;;;3.35;1.27;;;;;;;12.72;96.05;100185.03;3532068;40;20085;-55
2021/05/25 02:35:45;;;;;;;1.58;1.13;;;;;;;13.03;94.81;100172.41;3531570;40;20059;-56
2021/05/25 02:38:13;;;;;;;1.90;1.70;;;;;;;12.90;95.01;100186.91;3531466;40;20083;-56
2021/05/25 02:40:43;;;;;;;2.20;1.20;;;;;;;12.87;96.81;100176.59;3531995;40;20325;-56
2021/05/25 02:43:11;;;;;;;2.22;1.23;;;;;;;13.47;92.21;100179.59;3531869;40;20095;-57
2021/05/25 02:45:38;;;;;;;3.30;1.15;;;;;;;12.59;96.56;100174.66;3531986;40;20047;-55
2021/05/25 02:48:06;;;;;;;1.17;1.08;;;;;;;12.55;97.87;100176.31;3532186;40;20058;-59
2021/05/25 02:50:33;;;;;;;3.45;1.40;;;;;;;12.37;100.00;100174.44;3531864;40;20071;-57
2021/05/25 02:53:00;;;;;;;2.90;1.30;;;;;;;12.44;100.00;100173.66;3532335;40;20066;-56
2021/05/25 02:55:33;;;;;;;3.00;1.20;;;;;;;13.31;93.53;100193.22;3532077;40;20069;-53
2021/05/25 02:58:03;;;;;;;3.13;1.40;;;;;;;13.24;92.04;100192.31;3531982;40;20095;-53
2021/05/25 03:00:36;;;;;;;2.67;1.20;;;;;;;13.16;92.64;100201.66;3531919;40;20074;-58
2021/05/25 03:03:04;;;;;;;1.70;1.40;;;;;;;12.54;97.54;100191.72;3531610;40;20055;-56
2021/05/25 03:05:32;;;;;;;3.92;1.67;;;;;;;13.05;96.16;100191.31;3531731;40;20062;-56
2021/05/25 03:08:00;;;;;;;4.07;1.65;;;;;;;13.08;94.02;100195.59;3531936;40;20136;-55
2021/05/25 03:10:30;;;;;;;3.00;1.55;;;;;;;12.70;97.08;100198.72;3531787;40;20662;-58
2021/05/25 03:12:58;;;;;;;3.15;1.50;;;;;;;12.97;95.39;100198.09;3532206;40;20046;-56
2021/05/25 03:15:34;;;;;;;2.55;1.70;;;;;;;12.78;96.25;100185.94;3532173;40;20062;-58
2021/05/25 03:18:02;;;;;;;4.30;1.60;;;;;;;12.43;99.31;100189.91;3532306;40;20385;-57
2021/05/25 03:20:30;;;;;;;2.50;1.63;;;;;;;13.11;94.08;100191.34;3531988;40;20079;-56
2021/05/25 03:22:57;;;;;;;5.07;1.80;;;;;;;13.12;92.79;100202.47;3531652;40;20115;-60
2021/05/25 03:25:25;;;;;;;3.15;1.83;;;;;;;13.10;93.42;100204.19;3531633;40;20069;-56
2021/05/25 03:27:53;;;;;;;2.20;1.60;;;;;;;13.03;92.69;100210.97;3531654;40;20059;-55
2021/05/25 03:30:23;;;;;;;3.75;1.50;;;;;;;12.95;93.39;100208.38;3531795;40;20061;-58
2021/05/25 03:32:51;;;;;;;3.47;1.65;;;;;;;13.06;90.80;100193.00;3531777;40;20081;-57
2021/05/25 03:35:21;;;;;;;4.47;1.45;;;;;;;13.03;91.11;100195.56;3531914;40;20054;-55
2021/05/25 03:37:48;;;;;;;5.07;2.03;;;;;;;13.04;91.36;100191.31;3528456;40;20403;-52
2021/05/25 03:40:16;;;;;;;2.97;1.40;;;;;;;13.11;91.16;100203.34;3531912;40;20329;-58
2021/05/25 03:42:48;;;;;;;4.03;1.63;;;;;;;13.21;90.77;100200.81;3529688;40;20093;-54
2021/05/25 03:45:17;;;;;;;3.15;1.85;;;;;;;13.09;91.27;100205.91;3518153;40;20054;-54
2021/05/25 03:47:44;;;;;;;2.47;1.90;;;;;;;12.92;91.89;100205.75;3526872;40;20082;-56
2021/05/25 03:50:13;;;;;;;3.40;1.65;;;;;;;13.05;90.67;100208.44;3527525;40;20081;-56
2021/05/25 03:52:43;;;;;;;4.05;1.85;;;;;;;12.95;91.89;100203.22;3528163;40;20081;-56
2021/05/25 03:55:32;;;;;;;3.63;1.67;;;;;;;13.18;90.62;100200.81;3527797;40;20327;-56
2021/05/25 04:00:51;;;;;;;4.18;1.50;;;;;;;13.30;89.69;100200.06;3528236;40;20530;-56
2021/05/25 04:03:18;;;;;;;1.92;1.58;;;;;;;13.04;90.82;100205.00;3526750;40;20055;-58
2021/05/25 04:05:46;;;;;;;4.32;2.05;;;;;;;13.24;90.76;100208.59;3528320;40;20047;-53
2021/05/25 04:08:16;;;;;;;3.67;1.98;;;;;;;13.35;89.86;100208.66;3527784;40;20055;-51
2021/05/25 04:10:45;;;;;;;2.10;1.45;;;;;;;12.93;93.16;100209.19;3518930;40;20054;-50
2021/05/25 04:13:13;;;;;;;2.80;1.80;;;;;;;13.27;90.47;100217.22;3530491;40;20618;-53
2021/05/25 04:15:50;;;;;;;1.33;1.23;;;;;;;13.30;90.37;100227.50;3531266;40;20087;-52
2021/05/25 04:18:17;;;;;;;2.80;1.83;;;;;;;13.28;90.85;100236.94;3531762;40;20186;-54
2021/05/25 04:20:45;;;;;;;2.33;1.77;;;;;;;13.06;92.38;100230.72;3531836;40;20081;-53
2021/05/25 04:23:12;;;;;;;2.83;1.38;;;;;;;13.10;91.66;100233.31;3531826;40;20070;-54
2021/05/25 04:25:39;;;;;;;2.75;1.42;;;;;;;13.20;91.31;100231.69;3532170;40;20062;-57
2021/05/25 04:28:06;;;;;;;6.88;1.88;;;;;;;13.21;91.33;100230.81;3531748;40;20099;-51
2021/05/25 04:30:34;;;;;;;1.52;1.42;;;;;;;13.06;92.20;100233.28;3531178;40;20368;-55
2021/05/25 04:33:01;;;;;;;4.82;1.85;;;;;;;13.03;92.71;100228.09;3529519;40;20082;-56
2021/05/25 04:35:28;;;;;;;4.57;2.10;;;;;;;13.20;91.32;100226.53;3529347;40;20341;-53
2021/05/25 04:37:57;;;;;;;2.88;1.77;;;;;;;13.11;92.69;100229.91;3527634;40;20075;-58
2021/05/25 04:40:26;;;;;;;1.83;1.70;;;;;;;13.20;91.09;100232.53;3531133;40;20062;-55
2021/05/25 04:42:53;;;;;;;3.25;2.40;;;;;;;13.02;91.50;100222.09;3530125;40;20062;-52
2021/05/25 04:45:20;;;;;;;6.72;2.20;;;;;;;13.19;91.95;100223.09;3530912;40;20091;-53
2021/05/25 04:47:47;;;;;;;2.03;1.83;;;;;;;13.09;92.89;100225.59;3531410;40;20058;-54
2021/05/25 04:50:15;;;;;;;5.22;2.10;;;;;;;13.39;91.02;100231.00;3531780;40;20086;-54
2021/05/25 04:52:42;;;;;;;3.40;1.90;;;;;;;13.48;90.63;100236.19;3531315;40;20114;-56
2021/05/25 04:55:12;;;;;;;6.30;2.22;;;;;;;13.34;91.73;100239.53;3531384;40;20059;-52
2021/05/25 04:57:39;;;;;;;3.85;2.00;;;;;;;13.47;90.90;100228.47;3531250;40;20069;-53
2021/05/25 05:00:09;;;;;;;4.40;1.77;;;;;;;13.62;90.82;100232.84;3531048;40;20062;-55
2021/05/25 05:02:37;;;;;;;3.60;1.92;;;;;;;13.52;90.76;100228.50;3531154;40;20046;-56
2021/05/25 05:05:06;;;;;;;3.17;1.98;;;;;;;13.47;90.43;100224.19;3531783;40;20051;-53
2021/05/25 05:07:33;;;;;;;2.22;1.75;;;;;;;13.52;89.76;100234.50;3531292;40;20098;-53
2021/05/25 05:10:01;;;;;;;3.35;1.60;;;;;;;13.75;88.94;100234.66;3531434;40;20519;-56
2021/05/25 05:12:28;;;;;;;3.67;2.25;;;;;;;13.76;88.50;100241.50;3531063;40;20407;-52
2021/05/25 05:14:55;;;;;;;2.85;2.00;;;;;;;13.62;88.73;100236.28;3530933;40;20058;-57
2021/05/25 05:17:24;;;;;;;2.15;1.63;;;;;;;13.51;87.49;100243.09;3531048;40;20054;-56
2021/05/25 05:19:52;;;;;;;2.80;1.50;;;;;;;13.33;87.97;100246.38;3531427;40;20122;-56
2021/05/25 05:22:19;;;;;;;3.20;1.80;;;;;;;13.34;89.01;100254.97;3531188;40;20055;-56
2021/05/25 05:24:47;;;;;;;5.78;1.70;;;;;;;13.32;89.68;100260.09;3517856;40;20087;-56
2021/05/25 05:27:14;;;;;;;2.80;2.13;;;;;;;13.38;89.20;100269.56;3532398;40;20453;-57
2021/05/25 05:29:41;;;;;;;3.67;1.77;;;;;;;13.21;90.48;100272.81;3532473;40;20059;-53
2021/05/25 05:32:09;;;;;;;2.35;1.60;;;;;;;13.18;89.56;100280.53;3532491;40;20132;-50
2021/05/25 05:34:36;;;;;;;2.78;1.70;;;;;;;13.00;90.35;100283.78;3532457;40;20059;-55
2021/05/25 05:37:03;;;;;;;2.45;1.58;;;;;;;13.02;89.87;100277.81;3532261;40;20083;-58
2021/05/25 05:39:30;;;;;;;2.47;1.50;;;;;;;13.01;88.96;100289.78;3532367;40;20063;-53
2021/05/25 05:42:00;;;;;;;3.92;1.60;;;;;;;13.07;89.03;100288.97;3530088;40;20099;-58
2021/05/25 05:44:27;;;;;;;3.15;1.77;;;;;;;12.98;89.33;100300.03;3529432;40;20047;-56
2021/05/25 05:46:55;;;;;;;4.68;1.73;;;;;;;13.06;88.76;100295.84;3528574;40;20063;-56
2021/05/25 05:49:23;;;;;;;5.35;1.98;;;;;;;13.02;87.93;100306.94;3529458;40;20106;-56
2021/05/25 05:51:51;;;;;;;2.22;1.73;;;;;;;12.84;87.69;100307.59;3530256;40;20059;-54
2021/05/25 05:54:19;;;;;;;4.95;1.65;;;;;;;13.02;86.61;100314.66;3528721;40;20059;-57
2021/05/25 05:56:49;;;;;;;1.38;1.27;;;;;;;12.97;87.63;100312.03;3530556;40;20106;-54
2021/05/25 05:59:17;;;;;;;1.60;1.27;;;;;;;12.86;84.95;100307.66;3530594;40;20459;-52
2021/05/25 06:01:45;;;;;;;1.50;1.27;;;;;;;12.84;85.01;100307.59;3532095;40;20066;-57
2021/05/25 06:04:12;;;;;;;2.33;1.35;;;;;;;13.04;85.65;100300.13;3530276;40;20428;-58
2021/05/25 06:06:39;;;;;;;2.05;1.50;;;;;;;12.94;83.31;100311.13;3531984;40;20055;-52
2021/05/25 06:09:06;;;;;;;1.42;1.20;;;;;;;12.86;83.54;100316.22;3530241;40;20352;-54
2021/05/25 06:11:34;;;;;;;2.30;1.20;;;;;;;12.81;83.86;100309.31;3527306;40;20405;-51
2021/05/25 06:14:01;;;;;;;2.50;1.10;;;;;;;12.93;83.14;100292.28;3531732;40;20095;-54
2021/05/25 06:16:31;;;;;;;4.45;1.25;;;;;;;13.16;81.43;100283.91;3529834;40;20055;-50
2021/05/25 06:18:59;;;;;;;1.45;1.05;;;;;;;13.01;80.11;100320.63;3532277;40;20066;-56
2021/05/25 06:21:26;;;;;;;1.10;1.00;;;;;;;13.00;80.41;100316.34;3531355;40;20078;-57
2021/05/25 06:23:53;;;;;;;2.95;0.80;;;;;;;13.05;80.21;100335.25;3531869;40;20108;-53
2021/05/25 06:26:21;;;;;;;1.83;0.77;;;;;;;12.81;79.10;100333.28;3532398;40;20055;-57
2021/05/25 06:28:48;;;;;;;3.65;0.90;;;;;;;12.64;77.35;100330.53;3531923;40;20082;-56
2021/05/25 06:31:15;;;;;;;2.78;0.73;;;;;;;12.86;76.75;100344.47;3531846;40;20099;-58
2021/05/25 06:33:42;;;;;;;0.77;0.70;;;;;;;12.71;74.17;100328.88;3531813;40;20082;-56
2021/05/25 06:36:09;;;;;;;3.50;0.68;;;;;;;12.89;73.34;100329.06;3531727;40;20118;-55
2021/05/25 06:38:37;;;;;;;1.58;0.50;;;;;;;12.85;73.13;100329.91;3531661;40;20950;-54
2021/05/25 06:41:05;;;;;;;1.70;0.40;;;;;;;12.94;70.25;100327.44;3531532;40;20099;-53
2021/05/25 06:43:32;;;;;;;2.08;0.80;;;;;;;12.92;71.38;100329.13;3529250;40;20090;-55
2021/05/25 06:45:59;;;;;;;2.47;0.77;;;;;;;13.15;69.94;100341.34;3531500;40;20095;-52
2021/05/25 06:48:26;;;;;;;0.88;0.60;;;;;;;13.05;70.65;100342.97;3531544;40;20448;-54
2021/05/25 06:50:53;;;;;;;2.45;0.73;;;;;;;13.05;71.00;100350.66;3531584;40;20066;-55
2021/05/25 06:53:20;;;;;;;1.42;0.88;;;;;;;12.93;71.49;100363.38;3530912;40;20140;-52
2021/05/25 06:55:47;;;;;;;1.77;0.52;;;;;;;12.91;71.45;100352.25;3531242;40;20074;-54
2021/05/25 06:58:14;;;;;;;1.55;0.68;;;;;;;12.87;70.72;100346.19;3531786;40;20058;-55
2021/05/25 07:00:41;;;;;;;2.20;0.77;;;;;;;13.08;70.69;100337.84;3530762;40;20049;-56
2021/05/25 07:03:08;;;;;;;2.40;0.50;;;;;;;13.07;70.43;100345.53;3527457;40;20059;-56
2021/05/25 07:05:35;;;;;;;0.90;0.55;;;;;;;13.24;70.35;100349.16;3528773;40;20059;-56
2021/05/25 07:08:03;;;;;;;2.20;0.75;;;;;;;13.29;69.53;100338.94;3532288;40;20251;-56
2021/05/25 07:10:30;;;;;;;1.92;0.80;;;;;;;13.55;69.68;100328.88;3529848;40;20406;-57
2021/05/25 07:12:58;;;;;;;2.15;1.10;;;;;;;13.56;68.18;100323.72;3529679;40;20176;-55
2021/05/25 07:15:25;;;;;;;2.58;0.93;;;;;;;13.49;67.85;100332.22;3529698;40;20403;-57
2021/05/25 07:17:58;;;;;;;1.27;0.55;;;;;;;13.25;67.72;100350.88;3529497;40;20077;-52
2021/05/25 07:20:26;;;;;;;1.65;0.70;;;;;;;13.32;69.25;100359.53;3529426;40;20344;-58
2021/05/25 07:22:54;;;;;;;0.75;0.75;;;;;;;13.34;67.81;100358.69;3530060;40;20061;-54
2021/05/25 07:25:25;;;;;;;1.00;0.85;;;;;;;13.40;67.90;100350.16;3527991;40;20086;-54
2021/05/25 07:27:53;;;;;;;1.38;0.70;;;;;;;13.31;68.29;100343.25;3530450;40;20558;-53
2021/05/25 07:30:20;;;;;;;1.30;0.65;;;;;;;13.38;67.14;100346.72;3529008;40;20052;-56
2021/05/25 07:32:48;;;;;;;1.30;0.63;;;;;;;13.12;67.02;100351.56;3531276;40;20063;-57
2021/05/25 07:35:16;;;;;;;1.58;0.60;;;;;;;13.23;67.48;100357.72;3528412;40;20059;-56
2021/05/25 07:37:43;;;;;;;2.45;0.60;;;;;;;13.27;65.26;100359.50;3528106;40;20114;-56
2021/05/25 07:40:14;;;;;;;1.98;0.70;;;;;;;13.33;65.76;100376.69;3525915;40;20066;-55
2021/05/25 07:42:44;;;;;;;1.90;0.50;;;;;;;13.28;65.80;100388.63;3527573;40;20410;-53
2021/05/25 07:45:13;;;;;;;0.75;0.68;;;;;;;13.59;65.85;100372.63;3530204;40;20360;-58
2021/05/25 07:47:40;;;;;;;2.70;0.73;;;;;;;13.41;65.59;100373.34;3527420;40;20102;-56
2021/05/25 07:50:15;;;;;;;2.67;0.68;;;;;;;13.49;64.72;100384.53;3527101;40;20054;-55
2021/05/25 07:52:47;;;;;;;0.45;0.45;;;;;;;13.17;63.83;100402.22;3529983;40;20059;-55
2021/05/25 07:55:17;;;;;;;0.57;0.45;;;;;;;13.23;66.68;100399.72;3519940;40;20055;-53
2021/05/25 07:57:44;;;;;;;0.50;0.50;;;;;;;13.12;64.73;100400.44;3527480;40;20070;-51
2021/05/25 08:00:12;;;;;;;1.30;0.50;;;;;;;13.20;63.98;100398.81;3526571;40;20141;-56
2021/05/25 08:02:41;;;;;;;1.08;0.70;;;;;;;13.28;63.85;100411.78;3527963;40;20066;-56
2021/05/25 08:05:09;;;;;;;1.17;0.52;;;;;;;13.38;64.07;100411.03;3528535;40;20070;-55
2021/05/25 08:07:37;;;;;;;0.47;0.35;;;;;;;13.54;61.98;100402.56;3530814;40;20066;-56
2021/05/25 08:10:06;;;;;;;1.85;0.60;;;;;;;13.71;61.02;100388.16;3531156;40;20476;-53
2021/05/25 08:12:33;;;;;;;1.98;0.60;;;;;;;14.06;61.73;100397.88;3528167;40;20426;-56
2021/05/25 08:15:03;;;;;;;1.02;0.40;;;;;;;14.20;60.97;100397.94;3525672;40;20139;-55
2021/05/25 08:20:16;;;;;;;3.28;0.60;;;;;;;14.31;59.98;100388.56;3528273;40;20125;-54
2021/05/25 08:23:06;;;;;;;1.95;0.73;;;;;;;14.03;62.47;100400.41;3528831;40;20116;-58
2021/05/25 08:25:34;;;;;;;0.85;0.50;;;;;;;14.00;61.92;100390.97;3527604;40;20085;-52
2021/05/25 08:28:03;;;;;;;1.05;0.45;;;;;;;13.84;59.42;100389.13;3527787;40;20055;-55
2021/05/25 08:30:33;;;;;;;2.22;0.82;;;;;;;13.80;58.94;100389.09;3530487;40;20069;-53
2021/05/25 08:33:00;;;;;;;1.55;0.50;;;;;;;13.93;60.41;100403.78;3530310;40;20063;-55
2021/05/25 08:35:30;;;;;;;1.50;0.70;;;;;;;13.86;60.11;100410.56;3527568;40;20137;-57
2021/05/25 08:37:59;;;;;;;0.75;0.65;;;;;;;13.83;59.31;100404.56;3527925;40;20627;-54
2021/05/25 08:40:28;;;;;;;1.77;1.00;;;;;;;14.49;59.70;100406.72;3530679;40;20083;-53
2021/05/25 08:42:56;;;;;;;2.05;1.10;;;;;;;15.12;57.68;100413.84;3527083;40;21137;-57
2021/05/25 08:45:24;;;;;;;1.80;0.55;;;;;;;15.25;58.41;100407.84;3528033;40;20079;-58
2021/05/25 08:47:54;;;;;;;1.65;0.70;;;;;;;15.15;58.38;100409.53;3531250;40;20061;-55
2021/05/25 08:50:42;;;;;;;1.15;0.40;;;;;;;14.64;56.17;100405.06;3530367;40;20440;-55
2021/05/25 08:53:09;;;;;;;1.48;0.50;;;;;;;14.41;57.25;100394.63;3530845;40;20059;-57
2021/05/25 08:55:38;;;;;;;2.05;0.70;;;;;;;14.23;57.88;100410.81;3528253;40;20065;-55
2021/05/25 08:58:05;;;;;;;2.67;0.50;;;;;;;14.43;57.51;100408.38;3529588;40;20062;-58
2021/05/25 09:00:34;;;;;;;1.88;0.57;;;;;;;14.49;57.74;100417.03;3529778;40;20055;-57
2021/05/25 09:03:01;;;;;;;2.55;0.60;;;;;;;15.19;55.35;100420.72;3532209;40;20047;-56
2021/05/25 09:05:28;;;;;;;2.20;0.93;;;;;;;15.55;57.11;100430.28;3532529;40;20098;-56
2021/05/25 09:07:58;;;;;;;3.17;0.60;;;;;;;15.36;56.01;100413.03;3531960;40;20070;-52
2021/05/25 09:13:11;;;;;;;1.33;0.60;;;;;;;15.28;55.71;100410.44;3532307;40;20051;-54
2021/05/25 09:15:44;;;;;;;1.83;0.40;;;;;;;15.09;55.10;100406.09;3532098;40;20074;-54
2021/05/25 09:18:16;;;;;;;2.25;0.50;;;;;;;15.22;54.20;100421.63;3532413;40;20450;-56
2021/05/25 09:20:52;;;;;;;2.15;0.50;;;;;;;16.03;52.90;100405.31;3531909;40;20458;-57
2021/05/25 09:23:45;;;;;;;1.95;0.40;;;;;;;15.82;53.31;100411.38;3526936;40;20567;-56
2021/05/25 09:26:27;;;;;;;2.65;0.50;;;;;;;16.67;52.71;100399.13;3530786;40;20642;-57
2021/05/25 09:29:03;;;;;;;0.88;0.43;;;;;;;16.91;49.72;100416.31;3528610;40;20352;-51
2021/05/25 09:31:38;;;;;;;0.93;0.75;;;;;;;17.18;49.68;100412.72;3519347;40;20123;-58
2021/05/25 09:34:22;;;;;;;3.33;0.55;;;;;;;17.22;47.59;100419.59;3532292;40;20066;-56
2021/05/25 09:37:03;;;;;;;6.85;1.38;;;;;;;17.60;47.47;100431.41;3526515;40;20055;-55
2021/05/25 09:39:31;;;;;;;4.72;0.52;;;;;;;17.84;47.91;100426.09;3529959;40;20154;-57
2021/05/25 09:42:00;;;;;;;3.00;0.57;;;;;;;17.27;48.30;100428.19;3527830;40;20090;-57
2021/05/25 09:44:28;;;;;;;0.82;0.50;;;;;;;17.65;48.20;100416.72;3531410;40;20106;-53
2021/05/25 09:47:01;;;;;;;1.60;0.50;;;;;;;17.03;46.67;100417.09;3531220;40;20051;-55
2021/05/25 09:49:29;;;;;;;0.88;0.47;;;;;;;17.30;48.36;100417.84;3527683;40;20134;-57
2021/05/25 09:52:07;;;;;;;1.15;0.50;;;;;;;17.36;47.27;100403.97;3521101;40;20070;-57
2021/05/25 09:54:35;;;;;;;1.23;0.50;;;;;;;16.95;45.45;100399.91;3532235;40;20062;-58
2021/05/25 09:57:05;;;;;;;1.88;0.63;;;;;;;16.79;46.10;100420.69;3529599;40;20147;-58
2021/05/25 09:59:34;;;;;;;0.73;0.50;;;;;;;16.00;47.01;100416.53;3531833;40;20070;-56
2021/05/25 10:02:22;;;;;;;0.95;0.50;;;;;;;16.30;46.54;100419.94;3531129;40;20106;-55
2021/05/25 10:04:59;;;;;;;1.30;0.50;;;;;;;18.27;42.03;100412.75;3529022;40;20099;-56
2021/05/25 10:07:28;;;;;;;0.63;0.30;;;;;;;20.63;37.71;100411.84;3528822;40;20054;-56
2021/05/25 10:10:02;;;;;;;1.83;0.50;;;;;;;20.28;37.77;100421.13;3526823;40;20055;-57
2021/05/25 10:12:30;;;;;;;1.25;0.30;;;;;;;19.11;41.89;100408.31;3528305;40;20070;-56
2021/05/25 10:14:59;;;;;;;2.13;0.68;;;;;;;18.81;40.00;100403.50;3527266;40;20050;-58
2021/05/25 10:20:08;;;;;;;2.00;0.50;;;;;;;16.96;45.19;100417.13;3526697;40;20087;-57
2021/05/25 10:22:38;;;;;;;2.67;0.80;;;;;;;19.61;40.76;100420.56;3528397;40;20047;-57
2021/05/25 10:25:11;;;;;;;2.90;1.13;;;;;;;22.12;35.24;100425.81;3527334;40;20086;-54
2021/05/25 10:27:38;;;;;;;2.15;0.50;;;;;;;24.56;31.04;100427.84;3527663;40;20079;-52
2021/05/25 10:30:52;;;;;;;3.22;0.60;;;;;;;23.13;32.67;100428.22;3527035;40;20069;-54
2021/05/25 10:33:24;;;;;;;1.55;0.50;;;;;;;24.07;29.59;100428.69;3534350;40;20100;-58
2021/05/25 10:36:00;;;;;;;0.55;0.30;;;;;;;24.08;28.62;100438.22;3527650;40;20102;-58
2021/05/25 10:38:34;;;;;;;0.63;0.43;;;;;;;23.37;30.48;100427.44;3529220;40;20124;-55
2021/05/25 10:41:05;;;;;;;1.33;0.50;;;;;;;25.25;27.72;100440.16;3530948;40;20263;-55
2021/05/25 10:43:37;;;;;;;1.77;0.50;;;;;;;23.27;31.21;100431.25;3531321;40;20066;-59
2021/05/25 10:46:12;;;;;;;3.42;0.50;;;;;;;24.66;30.78;100428.34;3531249;40;20076;-57
2021/05/25 10:49:08;;;;;;;0.98;0.43;;;;;;;25.08;29.36;100431.16;3532043;40;20057;-54
2021/05/25 10:51:51;;;;;;;1.48;0.43;;;;;;;27.49;25.99;100424.22;3531604;40;20301;-52
2021/05/25 10:54:29;;;;;;;1.92;0.57;;;;;;;26.04;27.91;100426.41;3531983;40;20046;-53
2021/05/25 10:57:00;;;;;;;1.20;0.60;;;;;;;25.09;27.93;100416.28;3528181;40;20058;-56
2021/05/25 10:59:27;;;;;;;0.50;0.40;;;;;;;24.38;29.36;100408.41;3531515;40;20079;-57
2021/05/25 11:01:59;;;;;;;1.27;0.50;;;;;;;24.09;28.73;100409.41;3531993;40;20070;-55
2021/05/25 11:04:37;;;;;;;1.05;0.40;;;;;;;24.19;29.00;100415.19;3530327;40;20091;-56
2021/05/25 11:07:37;;;;;;;4.60;0.63;;;;;;;23.07;30.25;100410.13;3528128;40;20057;-56
2021/05/25 11:10:40;;;;;;;2.03;0.50;;;;;;;22.77;30.28;100401.41;3525809;40;20504;-58
2021/05/25 11:13:16;;;;;;;1.17;0.30;;;;;;;22.69;31.53;100398.16;3527310;40;20487;-58
2021/05/25 11:16:17;;;;;;;2.88;0.40;;;;;;;24.88;28.92;100408.31;3528442;40;20043;-55
2021/05/25 11:18:54;;;;;;;3.80;0.60;;;;;;;24.84;28.85;100418.97;3527767;40;20055;-56
2021/05/25 11:24:32;;;;;;;0.45;0.30;;;;;;;24.79;27.43;100428.75;3525151;40;20035;-53
2021/05/25 11:27:09;;;;;;;1.85;0.82;;;;;;;24.46;29.05;100418.63;3528041;40;20047;-56
2021/05/25 11:29:40;;;;;;;1.88;0.60;;;;;;;27.56;26.32;100419.53;3528443;40;20527;-57
2021/05/25 11:32:14;;;;;;;1.25;0.40;;;;;;;25.63;26.98;100412.38;3527881;40;20082;-59
2021/05/25 11:34:43;;;;;;;2.03;0.87;;;;;;;26.69;25.32;100408.72;3528736;40;20043;-56
2021/05/25 11:37:16;;;;;;;1.55;0.40;;;;;;;25.22;26.44;100400.94;3527623;40;20059;-52
2021/05/25 11:39:45;;;;;;;2.10;0.60;;;;;;;24.10;29.79;100392.81;3528804;40;20575;-54
2021/05/25 11:42:13;;;;;;;1.63;0.40;;;;;;;22.53;31.26;100395.97;3527434;40;20058;-57
2021/05/25 11:44:44;;;;;;;0.47;0.30;;;;;;;20.46;34.30;100388.72;3528502;40;20113;-56
2021/05/25 11:47:12;;;;;;;2.25;0.47;;;;;;;19.77;35.92;100392.59;3524852;40;20039;-59
2021/05/25 11:49:41;;;;;;;1.63;0.60;;;;;;;19.45;35.42;100387.88;3528239;40;20079;-53
2021/05/25 11:52:21;;;;;;;3.00;0.50;;;;;;;19.17;34.85;100413.41;3528402;40;20083;-57